createdAt,value
2023-01-30T00:01:35.356Z,21.92
2023-01-30T00:06:37.046Z,23.75
2023-01-30T00:11:38.545Z,23.45
2023-01-30T00:16:40.135Z,18.80
2023-01-30T00:21:41.638Z,19.80
2023-01-30T00:26:43.202Z,21.58
2023-01-30T00:31:44.721Z,21.33
2023-01-30T00:36:49.362Z,20.35
2023-01-30T00:42:13.628Z,19.00
2023-01-30T00:47:15.289Z,20.85
2023-01-30T00:52:16.756Z,20.25
2023-01-30T00:57:18.365Z,22.42
2023-01-30T01:02:20.421Z,23.30
2023-01-30T01:07:22.150Z,17.92
2023-01-30T01:12:23.881Z,22.27
2023-01-30T01:17:25.425Z,17.05
2023-01-30T01:22:26.912Z,17.27
2023-01-30T01:27:29.204Z,26.05
2023-01-30T01:32:30.759Z,20.17
2023-01-30T01:37:32.324Z,25.88
2023-01-30T01:42:36.360Z,25.95
2023-01-30T01:47:45.301Z,23.45
2023-01-30T01:52:52.045Z,17.58
2023-01-30T01:58:09.760Z,23.47
2023-01-30T02:03:17.339Z,25.17
2023-01-30T02:08:32.387Z,22.25
2023-01-30T02:13:33.966Z,23.77
2023-01-30T02:18:38.840Z,20.35
2023-01-30T02:23:58.544Z,28.23
2023-01-30T02:29:03.031Z,23.20
2023-01-30T02:34:28.954Z,27.25
2023-01-30T02:39:47.460Z,25.23
2023-01-30T02:45:21.167Z,19.15
2023-01-30T02:50:46.091Z,26.67
2023-01-30T02:55:47.555Z,24.95
2023-01-30T03:01:27.286Z,26.38
2023-01-30T03:06:56.818Z,32.03
2023-01-30T03:12:16.603Z,25.48
2023-01-30T03:17:21.560Z,29.38
2023-01-30T03:22:23.475Z,27.85
2023-01-30T03:27:25.040Z,26.05
2023-01-30T03:32:26.526Z,27.85
2023-01-30T03:37:28.087Z,33.25
2023-01-30T03:42:29.628Z,22.88
2023-01-30T03:47:31.106Z,22.35
2023-01-30T03:52:35.059Z,33.13
2023-01-30T03:57:36.663Z,26.48
2023-01-30T04:02:38.690Z,31.30
2023-01-30T04:07:40.328Z,22.38
2023-01-30T04:12:42.781Z,26.00
2023-01-30T04:17:44.832Z,29.70
2023-01-30T04:22:46.510Z,30.10
2023-01-30T04:27:47.986Z,36.53
2023-01-30T04:32:49.445Z,26.55
2023-01-30T04:37:50.979Z,24.63
2023-01-30T04:42:52.449Z,21.20
2023-01-30T04:47:54.010Z,27.45
2023-01-30T04:52:55.547Z,20.10
2023-01-30T04:57:57.234Z,23.92
2023-01-30T05:02:58.716Z,31.30
2023-01-30T05:08:00.417Z,31.65
2023-01-30T05:13:06.327Z,32.28
2023-01-30T05:18:07.919Z,33.88
2023-01-30T05:23:09.540Z,37.47
2023-01-30T05:28:11.022Z,33.08
2023-01-30T05:33:12.545Z,30.02
2023-01-30T05:38:14.154Z,28.92
2023-01-30T05:43:15.685Z,29.27
2023-01-30T05:48:17.147Z,27.40
2023-01-30T05:53:19.694Z,23.65
2023-01-30T05:58:21.172Z,28.23
2023-01-30T06:03:22.637Z,29.92
2023-01-30T06:08:24.662Z,31.50
2023-01-30T06:13:26.171Z,26.20
2023-01-30T06:18:28.223Z,21.90
2023-01-30T06:23:29.806Z,29.38
2023-01-30T06:28:31.391Z,25.38
2023-01-30T06:33:32.962Z,31.42
2023-01-30T06:38:34.564Z,38.65
2023-01-30T06:43:36.081Z,36.90
2023-01-30T06:48:37.643Z,33.35
2023-01-30T06:53:41.222Z,46.03
2023-01-30T06:58:42.979Z,38.75
2023-01-30T07:03:44.651Z,42.92
2023-01-30T07:08:46.313Z,35.95
2023-01-30T07:13:47.858Z,40.88
2023-01-30T07:18:49.366Z,39.28
2023-01-30T07:23:50.953Z,29.38
2023-01-30T07:28:52.542Z,27.98
2023-01-30T07:33:54.109Z,32.35
2023-01-30T07:38:55.677Z,35.35
2023-01-30T07:43:57.231Z,23.65
2023-01-30T07:48:59.859Z,31.15
2023-01-30T07:54:02.100Z,28.02
2023-01-30T07:59:05.621Z,33.75
2023-01-30T08:04:07.197Z,37.25
2023-01-30T08:09:08.824Z,33.10
2023-01-30T08:14:11.122Z,29.50
2023-01-30T08:19:12.729Z,36.25
2023-01-30T08:24:14.286Z,34.55
2023-01-30T08:29:15.850Z,32.95
2023-01-30T08:34:17.410Z,36.72
2023-01-30T08:39:19.091Z,29.80
2023-01-30T08:44:20.674Z,30.73
2023-01-30T08:49:22.219Z,33.05
2023-01-30T08:54:23.786Z,30.25
2023-01-30T08:59:25.319Z,31.17
2023-01-30T09:04:29.565Z,31.23
2023-01-30T09:09:31.040Z,30.33
2023-01-30T09:14:32.520Z,32.60
2023-01-30T09:19:36.073Z,32.15
2023-01-30T09:24:37.563Z,37.67
2023-01-30T09:29:39.088Z,35.85
2023-01-30T09:34:40.567Z,26.13
2023-01-30T09:39:42.168Z,32.80
2023-01-30T09:45:00.174Z,32.22
2023-01-30T09:55:18.193Z,40.40
2023-01-30T10:00:35.649Z,33.08
2023-01-30T10:06:02.345Z,35.70
2023-01-30T10:11:25.071Z,37.55
2023-01-30T10:16:41.600Z,39.03
2023-01-30T10:21:54.548Z,36.13
2023-01-30T10:26:57.411Z,31.13
2023-01-30T10:32:04.840Z,32.03
2023-01-30T10:37:29.746Z,33.08
2023-01-30T10:42:58.353Z,39.05
2023-01-30T10:48:43.292Z,29.75
2023-01-30T10:54:34.848Z,45.15
2023-01-30T10:59:54.172Z,38.00
2023-01-30T11:05:01.066Z,38.35
2023-01-30T11:10:02.673Z,42.20
2023-01-30T11:15:04.498Z,36.75
2023-01-30T11:20:19.242Z,34.30
2023-01-30T11:25:22.892Z,31.50
2023-01-30T11:30:29.153Z,39.42
2023-01-30T11:35:31.408Z,39.90
2023-01-30T11:40:38.189Z,32.78
2023-01-30T11:45:44.507Z,32.87
2023-01-30T11:50:50.267Z,35.10
2023-01-30T11:56:03.783Z,35.72
2023-01-30T12:01:10.804Z,39.50
2023-01-30T12:06:20.684Z,48.08
2023-01-30T12:11:27.206Z,42.53
2023-01-30T12:16:48.462Z,32.92
2023-01-30T12:22:02.317Z,35.33
2023-01-30T12:27:16.875Z,36.65
2023-01-30T12:32:22.021Z,32.53
2023-01-30T12:37:45.829Z,36.13
2023-01-30T12:42:59.362Z,35.78
2023-01-30T12:48:06.953Z,31.65
2023-01-30T12:53:39.907Z,31.20
2023-01-30T12:58:46.770Z,46.00
2023-01-30T13:04:13.817Z,40.60
2023-01-30T13:09:36.491Z,30.02
2023-01-30T13:14:54.192Z,30.77
2023-01-30T13:20:32.868Z,31.30
2023-01-30T13:30:40.661Z,30.58
2023-01-30T13:35:49.954Z,33.72
2023-01-30T13:40:56.687Z,31.35
2023-01-30T13:46:03.350Z,32.80
2023-01-30T13:51:21.064Z,32.63
2023-01-30T13:56:57.978Z,42.53
2023-01-30T14:01:59.521Z,25.58
2023-01-30T14:07:22.770Z,31.65
2023-01-30T14:12:27.430Z,31.05
2023-01-30T14:17:29.915Z,35.92
2023-01-30T14:22:40.866Z,40.88
2023-01-30T14:27:42.468Z,39.95
2023-01-30T14:32:55.442Z,34.58
2023-01-30T14:38:12.353Z,33.67
2023-01-30T14:43:16.352Z,37.08
2023-01-30T14:48:39.720Z,37.85
2023-01-30T14:53:52.200Z,40.45
2023-01-30T14:59:03.142Z,28.73
2023-01-30T15:04:05.181Z,32.92
2023-01-30T15:09:07.690Z,30.30
2023-01-30T15:14:22.174Z,33.50
2023-01-30T15:19:49.035Z,27.95
2023-01-30T15:24:56.464Z,30.73
2023-01-30T15:30:12.521Z,31.50
2023-01-30T15:35:17.219Z,25.45
2023-01-30T15:40:28.283Z,30.30
2023-01-30T15:45:35.794Z,31.15
2023-01-30T15:50:37.835Z,34.67
2023-01-30T15:55:42.760Z,38.25
2023-01-30T16:00:47.593Z,33.50
2023-01-30T16:05:51.763Z,31.95
2023-01-30T16:10:53.502Z,34.42
2023-01-30T16:16:08.021Z,41.35
2023-01-30T16:21:31.669Z,35.53
2023-01-30T16:26:36.888Z,39.35
2023-01-30T16:31:40.127Z,36.08
2023-01-30T16:36:42.198Z,39.10
2023-01-30T16:41:44.669Z,28.20
2023-01-30T16:46:46.177Z,39.45
2023-01-30T16:51:49.266Z,36.28
2023-01-30T16:56:55.447Z,36.33
2023-01-30T17:01:59.207Z,29.55
2023-01-30T17:07:04.191Z,33.38
2023-01-30T17:12:36.977Z,33.47
2023-01-30T17:17:42.186Z,30.50
2023-01-30T17:22:46.110Z,28.63
2023-01-30T17:27:48.204Z,29.63
2023-01-30T17:32:52.611Z,29.05
2023-01-30T17:38:04.778Z,30.65
2023-01-30T17:43:07.367Z,27.80
2023-01-30T17:48:11.991Z,31.80
2023-01-30T17:53:13.516Z,26.13
2023-01-30T17:58:19.580Z,33.40
2023-01-30T18:03:21.154Z,35.50
2023-01-30T18:08:22.772Z,32.78
2023-01-30T18:13:24.319Z,31.50
2023-01-30T18:18:26.743Z,39.88
2023-01-30T18:23:28.271Z,33.95
2023-01-30T18:28:29.777Z,30.15
2023-01-30T18:33:35.939Z,20.90
2023-01-30T18:38:37.466Z,29.95
2023-01-30T18:43:39.169Z,33.45
2023-01-30T18:48:41.650Z,34.10
2023-01-30T18:53:43.884Z,34.42
2023-01-30T18:58:45.400Z,28.25
2023-01-30T19:03:46.955Z,39.00
2023-01-30T19:08:48.606Z,33.80
2023-01-30T19:13:50.185Z,31.90
2023-01-30T19:18:53.167Z,26.25
2023-01-30T19:23:54.790Z,27.17
2023-01-30T19:28:56.397Z,20.75
2023-01-30T19:34:05.035Z,27.02
2023-01-30T19:39:06.916Z,25.45
2023-01-30T19:44:08.840Z,26.65
2023-01-30T19:49:11.537Z,27.90
2023-01-30T19:54:13.150Z,23.90
2023-01-30T19:59:16.571Z,30.35
2023-01-30T20:04:18.159Z,29.10
2023-01-30T20:09:19.764Z,38.08
2023-01-30T20:14:21.292Z,29.33
2023-01-30T20:19:22.863Z,31.75
2023-01-30T20:24:24.385Z,31.27
2023-01-30T20:29:26.024Z,28.63
2023-01-30T20:34:27.679Z,43.15
2023-01-30T20:39:29.526Z,28.05
2023-01-30T20:44:31.125Z,33.67
2023-01-30T20:49:32.735Z,25.25
2023-01-30T20:54:34.300Z,32.83
2023-01-30T20:59:36.268Z,27.13
2023-01-30T21:04:38.393Z,26.17
2023-01-30T21:09:39.933Z,32.63
2023-01-30T21:14:41.530Z,20.73
2023-01-30T21:19:43.622Z,25.55
2023-01-30T21:24:45.241Z,26.75
2023-01-30T21:29:46.927Z,29.08
2023-01-30T21:34:48.407Z,27.70
2023-01-30T21:40:08.371Z,25.67
2023-01-30T21:45:09.987Z,26.50
2023-01-30T21:50:11.568Z,25.38
2023-01-30T21:55:13.068Z,26.95
2023-01-30T22:00:14.871Z,24.88
2023-01-30T22:05:16.396Z,25.60
2023-01-30T22:10:17.958Z,21.40
2023-01-30T22:15:22.688Z,23.88
2023-01-30T22:20:24.184Z,22.35
2023-01-30T22:25:25.773Z,29.17
2023-01-30T22:30:27.341Z,27.50
2023-01-30T22:35:29.245Z,19.10
2023-01-30T22:40:30.863Z,31.55
2023-01-30T22:45:35.033Z,22.77
2023-01-30T22:50:37.037Z,26.80
2023-01-30T22:55:38.634Z,31.52
2023-01-30T23:00:40.393Z,22.40
2023-01-30T23:05:41.915Z,20.10
2023-01-30T23:10:43.483Z,24.70
2023-01-30T23:15:46.796Z,20.42
2023-01-30T23:20:48.326Z,16.80
2023-01-30T23:25:49.882Z,21.67
2023-01-30T23:30:51.485Z,21.10
2023-01-30T23:35:53.035Z,26.42
2023-01-30T23:41:03.648Z,25.98
2023-01-30T23:46:20.586Z,25.08
2023-01-30T23:51:24.949Z,25.33
2023-01-30T23:56:29.048Z,20.08
